Niigata, Japan
Current Conditions -  °F | °C
As of 11:00 AM on Thursday 23 Oct 2014 (Local Time) from RJSN Reporting Station
Broken Clouds Broken Clouds  
Wind Chill: 55°   Ceiling: Unl
Heat Index: 55°   Visibility: 6mi
Dew Point: 45°   Wind: 3mph
Humidity: 67%   Direction: 60°ENE
Pressure: 30.12"   Gusts: NA
Location:  37.92°N, 139.04°E
Report Text: RJSN 230200Z 06003KT 020V100 9999 FEW030 BKN/// 13/07 Q1020
Loading
Personal Weather Stations






























Interactive Weather Map
Tropical Storm Tracking
New forecast layout! Learn more

10-Day Weather Forecast

Advertisements
Track Severe Weather on mobile